Time;durP1;ratioP1;P1;durP2;ratioP2;P2;SDS_P1;SDS_P2;PMS_P1;PMS_P2;Temp;Humidity;BMP_temperature;BMP_pressure;BME280_temperature;BME280_humidity;BME280_pressure;Samples;Min_cycle;Max_cycle;Signal;HPM_P1;HPM_P2
2022/01/26 00:07:19;;;;;;;68.30;21.45;;;2.90;99.90;;;;;;5046761;28;20059;-64
2022/01/26 00:09:45;;;;;;;71.75;21.63;;;2.90;99.90;;;;;;5048157;28;20544;-65
2022/01/26 00:12:11;;;;;;;71.90;20.92;;;2.90;99.90;;;;;;5048861;28;20052;-64
2022/01/26 00:14:42;;;;;;;73.95;21.08;;;2.90;99.90;;;;;;5048060;28;20052;-65
2022/01/26 00:17:10;;;;;;;78.32;22.70;;;2.90;99.90;;;;;;5030992;28;20048;-64
2022/01/26 00:20:41;;;;;;;78.78;22.23;;;2.80;99.90;;;;;;5047561;28;20037;-64
2022/01/26 00:38:38;;;;;;;74.88;22.80;;;2.90;99.90;;;;;;5044164;28;22201;-66
2022/01/26 00:41:07;;;;;;;80.32;23.10;;;2.90;99.90;;;;;;5049467;28;20056;-64
2022/01/26 00:43:35;;;;;;;72.57;22.27;;;2.90;99.90;;;;;;5048015;28;20037;-65
2022/01/26 00:46:04;;;;;;;71.85;21.95;;;2.80;99.90;;;;;;5050549;28;20045;-65
2022/01/26 00:48:32;;;;;;;77.10;24.55;;;2.80;99.90;;;;;;5044340;28;20373;-65
2022/01/26 00:51:00;;;;;;;76.50;23.35;;;2.80;99.90;;;;;;5049334;28;20659;-65
2022/01/26 00:53:35;;;;;;;73.28;23.50;;;2.80;99.90;;;;;;5045676;28;20037;-65
2022/01/26 00:56:02;;;;;;;83.60;24.08;;;2.80;99.90;;;;;;5050107;28;20052;-64
2022/01/26 00:58:28;;;;;;;82.38;24.15;;;2.80;99.90;;;;;;5064235;28;20423;-64
2022/01/26 01:00:55;;;;;;;80.80;23.33;;;2.80;99.90;;;;;;5045880;28;20029;-64
2022/01/26 01:03:21;;;;;;;78.82;23.63;;;2.80;99.90;;;;;;5047870;28;20114;-65
2022/01/26 01:06:01;;;;;;;75.18;23.52;;;2.80;99.90;;;;;;5032609;28;20045;-64
2022/01/26 01:08:27;;;;;;;78.13;24.58;;;2.80;99.90;;;;;;5048514;28;20068;-65
2022/01/26 01:10:55;;;;;;;79.93;24.05;;;2.80;99.90;;;;;;5046013;28;20048;-64
2022/01/26 01:13:31;;;;;;;74.57;22.77;;;2.80;99.90;;;;;;5042309;28;20386;-65
2022/01/26 01:15:57;;;;;;;72.00;22.73;;;2.80;99.90;;;;;;5045748;28;20618;-65
2022/01/26 01:18:35;;;;;;;72.50;22.40;;;2.80;99.90;;;;;;5046729;28;20147;-65
2022/01/26 01:31:17;;;;;;;81.80;23.90;;;2.70;99.90;;;;;;5049613;28;20084;-64
2022/01/26 01:33:46;;;;;;;79.85;23.27;;;2.70;99.90;;;;;;5043527;28;20382;-64
2022/01/26 01:36:12;;;;;;;83.93;22.80;;;2.70;99.90;;;;;;5046449;28;20047;-64
2022/01/26 01:38:43;;;;;;;78.93;23.13;;;2.70;99.90;;;;;;5047858;28;20036;-64
2022/01/26 01:41:10;;;;;;;78.55;23.77;;;2.70;99.90;;;;;;5045274;28;20033;-65
2022/01/26 01:43:37;;;;;;;69.68;22.08;;;2.70;99.90;;;;;;5026477;28;20076;-65
2022/01/26 01:46:03;;;;;;;74.15;22.95;;;2.70;99.90;;;;;;5061589;28;20124;-65
2022/01/26 01:48:31;;;;;;;71.55;21.92;;;2.70;99.90;;;;;;5048656;28;20373;-64
2022/01/26 01:51:00;;;;;;;80.45;23.00;;;2.60;99.90;;;;;;5049749;28;20037;-64
2022/01/26 01:53:35;;;;;;;81.15;23.55;;;2.60;99.90;;;;;;5046118;28;20039;-65
2022/01/26 01:56:01;;;;;;;76.63;22.27;;;2.60;99.90;;;;;;5047099;28;20060;-65
2022/01/26 01:58:27;;;;;;;76.13;24.35;;;2.60;99.90;;;;;;5046625;28;20055;-65
2022/01/26 02:00:53;;;;;;;86.22;24.13;;;2.60;99.90;;;;;;5047075;28;20060;-65
2022/01/26 02:03:19;;;;;;;78.90;21.63;;;2.60;99.90;;;;;;5047098;28;20088;-64
2022/01/26 02:05:45;;;;;;;73.55;23.20;;;2.60;99.90;;;;;;5049103;28;20028;-65
2022/01/26 02:08:11;;;;;;;79.88;23.67;;;2.60;99.90;;;;;;5045985;28;20393;-64
2022/01/26 02:10:37;;;;;;;73.50;23.40;;;2.60;99.90;;;;;;5044934;28;20061;-64
2022/01/26 02:13:16;;;;;;;73.22;23.10;;;2.60;99.90;;;;;;5045402;28;20115;-65
2022/01/26 02:15:50;;;;;;;80.50;24.25;;;2.60;99.90;;;;;;5049098;28;20341;-65
2022/01/26 02:21:16;;;;;;;74.70;22.48;;;2.70;99.90;;;;;;5049425;28;20136;-65
2022/01/26 02:54:01;;;;;;;81.03;24.92;;;2.50;99.90;;;;;;5043319;28;20132;-66
2022/01/26 03:01:54;;;;;;;77.38;21.65;;;2.50;99.90;;;;;;5046727;28;20041;-65
2022/01/26 03:04:32;;;;;;;76.80;20.88;;;2.40;99.90;;;;;;5041909;28;20045;-65
2022/01/26 03:07:09;;;;;;;79.22;23.23;;;2.40;99.90;;;;;;5045707;28;20409;-65
2022/01/26 03:09:41;;;;;;;75.30;21.60;;;2.40;99.90;;;;;;5046436;28;20447;-65
2022/01/26 03:12:08;;;;;;;74.35;22.55;;;2.40;99.90;;;;;;5057460;28;20067;-65
2022/01/26 03:17:09;;;;;;;82.18;23.10;;;2.40;99.90;;;;;;5041235;28;20134;-65
2022/01/26 03:19:40;;;;;;;75.93;22.35;;;2.40;99.90;;;;;;5042720;28;20045;-65
2022/01/26 03:30:27;;;;;;;68.80;21.02;;;2.40;99.90;;;;;;5045642;28;20139;-65
2022/01/26 03:35:48;;;;;;;74.53;23.63;;;2.40;99.90;;;;;;5046405;28;20132;-66
2022/01/26 03:38:22;;;;;;;83.43;23.75;;;2.30;99.90;;;;;;5047776;28;20048;-65
2022/01/26 03:40:57;;;;;;;80.60;23.20;;;2.30;99.90;;;;;;5047926;28;20049;-64
2022/01/26 03:43:22;;;;;;;78.35;21.58;;;2.30;99.90;;;;;;5047080;28;20064;-65
2022/01/26 03:45:48;;;;;;;79.43;23.05;;;2.40;99.90;;;;;;5047278;28;20033;-66
2022/01/26 03:48:13;;;;;;;76.65;22.35;;;2.30;99.90;;;;;;5053113;28;20091;-65
2022/01/26 03:50:39;;;;;;;73.15;22.23;;;2.40;99.90;;;;;;5047380;28;20045;-65
2022/01/26 03:53:04;;;;;;;76.93;23.17;;;2.30;99.90;;;;;;5045071;28;20871;-65
2022/01/26 03:55:30;;;;;;;83.07;23.55;;;2.40;99.90;;;;;;5045634;28;20306;-65
2022/01/26 03:57:55;;;;;;;82.72;23.42;;;2.40;99.90;;;;;;5029947;28;20040;-66
2022/01/26 04:00:21;;;;;;;83.38;22.90;;;2.40;99.90;;;;;;5048235;28;20453;-65
2022/01/26 04:02:48;;;;;;;83.03;23.85;;;2.30;99.90;;;;;;5066800;28;20378;-65
2022/01/26 04:05:14;;;;;;;85.97;24.90;;;2.30;99.90;;;;;;5047808;28;20059;-64
2022/01/26 04:07:42;;;;;;;84.63;24.17;;;2.30;99.90;;;;;;5050306;28;20041;-65
2022/01/26 04:10:19;;;;;;;79.13;23.17;;;2.40;99.90;;;;;;5047740;28;20067;-65
2022/01/26 04:12:45;;;;;;;78.78;24.27;;;2.40;99.90;;;;;;5033416;28;20072;-64
2022/01/26 04:15:22;;;;;;;92.45;23.83;;;2.40;99.90;;;;;;5049920;28;20531;-65
2022/01/26 04:17:48;;;;;;;78.90;22.42;;;2.30;99.90;;;;;;5033616;28;20047;-65
2022/01/26 04:20:13;;;;;;;77.22;24.65;;;2.40;99.90;;;;;;5046287;28;20037;-65
2022/01/26 04:22:50;;;;;;;79.25;23.40;;;2.30;99.90;;;;;;5051603;28;20128;-64
2022/01/26 04:25:20;;;;;;;71.85;22.52;;;2.30;99.90;;;;;;5049350;28;20444;-64
2022/01/26 04:27:49;;;;;;;;;;;2.30;99.90;;;;;;5049800;28;20064;-64
2022/01/26 04:30:15;;;;;;;70.07;22.02;;;2.30;99.90;;;;;;5046589;28;19917;-65
2022/01/26 04:32:40;;;;;;;78.45;23.55;;;2.30;99.90;;;;;;5046979;28;20048;-65
2022/01/26 04:35:08;;;;;;;79.53;23.20;;;2.30;99.90;;;;;;5030783;28;20694;-66
2022/01/26 04:40:12;;;;;;;81.72;23.95;;;2.30;99.90;;;;;;5048247;28;20374;-65
2022/01/26 04:42:52;;;;;;;78.32;21.80;;;2.30;99.90;;;;;;5033429;28;20060;-65
2022/01/26 04:45:18;;;;;;;80.95;22.73;;;2.30;99.90;;;;;;5048427;28;20055;-65
2022/01/26 04:47:43;;;;;;;80.38;23.45;;;2.30;99.90;;;;;;5031636;28;22030;-65
2022/01/26 04:50:10;;;;;;;80.10;22.13;;;2.30;99.90;;;;;;5046534;28;20109;-65
2022/01/26 04:52:37;;;;;;;90.57;25.92;;;2.30;99.90;;;;;;5049182;28;20626;-65
2022/01/26 04:55:03;;;;;;;85.32;23.25;;;2.30;99.90;;;;;;5046792;28;20056;-65
2022/01/26 04:57:29;;;;;;;76.75;21.83;;;2.30;99.90;;;;;;5048809;28;20124;-64
2022/01/26 04:59:54;;;;;;;79.55;22.88;;;2.30;99.90;;;;;;5049270;28;20112;-65
2022/01/26 05:02:20;;;;;;;83.85;23.25;;;2.30;99.90;;;;;;5046074;28;20078;-65
2022/01/26 05:04:45;;;;;;;81.70;24.42;;;2.30;99.90;;;;;;5030193;28;20044;-65
2022/01/26 05:07:11;;;;;;;79.45;23.80;;;2.30;99.90;;;;;;5047346;28;20041;-65
2022/01/26 05:09:36;;;;;;;82.15;23.85;;;2.20;99.90;;;;;;5044550;28;20032;-65
2022/01/26 05:12:03;;;;;;;89.80;23.67;;;2.30;99.90;;;;;;5046410;28;20507;-65
2022/01/26 05:14:29;;;;;;;81.03;23.15;;;2.30;99.90;;;;;;5031499;28;20082;-66
2022/01/26 05:16:54;;;;;;;82.55;24.30;;;2.20;99.90;;;;;;5048789;28;20441;-65
2022/01/26 05:19:20;;;;;;;80.30;24.13;;;2.20;99.90;;;;;;5048712;28;20040;-64
2022/01/26 05:21:46;;;;;;;84.90;23.90;;;2.20;99.90;;;;;;5063137;28;20657;-65
2022/01/26 05:24:11;;;;;;;84.28;24.20;;;2.20;99.90;;;;;;5064802;28;20127;-65
2022/01/26 05:26:40;;;;;;;82.13;22.92;;;2.20;99.90;;;;;;5046381;28;20041;-64
2022/01/26 05:29:06;;;;;;;71.70;21.10;;;2.20;99.90;;;;;;5044974;28;20163;-65
2022/01/26 05:31:33;;;;;;;78.45;23.13;;;2.20;99.90;;;;;;5033533;28;20056;-65
2022/01/26 05:33:58;;;;;;;73.43;22.77;;;2.20;99.90;;;;;;5053763;28;20054;-65
2022/01/26 05:36:24;;;;;;;80.68;23.60;;;2.20;99.90;;;;;;5059424;28;20036;-69
2022/01/26 05:38:50;;;;;;;73.97;21.45;;;2.20;99.90;;;;;;5028332;28;20221;-64
2022/01/26 05:41:15;;;;;;;79.45;22.73;;;2.20;99.90;;;;;;5040122;28;20053;-67
2022/01/26 05:43:41;;;;;;;79.30;22.48;;;2.20;99.90;;;;;;5047178;28;20059;-65
2022/01/26 05:46:17;;;;;;;88.60;24.35;;;2.20;99.90;;;;;;5048468;28;20202;-64
2022/01/26 05:48:45;;;;;;;76.60;21.35;;;2.20;99.90;;;;;;5049188;28;20059;-65
2022/01/26 05:51:12;;;;;;;80.28;24.10;;;2.20;99.90;;;;;;5048590;28;20416;-65
2022/01/26 05:53:39;;;;;;;80.95;23.13;;;2.20;99.90;;;;;;5050600;28;20056;-64
2022/01/26 05:56:05;;;;;;;72.40;21.55;;;2.20;99.90;;;;;;5048919;28;20048;-66
2022/01/26 05:58:31;;;;;;;78.43;21.77;;;2.20;99.90;;;;;;5040168;28;20284;-65
2022/01/26 06:00:59;;;;;;;76.18;23.30;;;2.20;99.90;;;;;;5045826;28;20036;-65
2022/01/26 06:03:25;;;;;;;76.75;23.25;;;2.20;99.90;;;;;;5046660;28;20049;-65
2022/01/26 06:05:50;;;;;;;79.88;23.00;;;2.20;99.90;;;;;;5064659;28;20045;-65
2022/01/26 06:08:16;;;;;;;69.65;21.33;;;2.20;99.90;;;;;;5043724;28;20401;-64
2022/01/26 06:10:42;;;;;;;73.93;22.27;;;2.20;99.90;;;;;;5034042;28;20055;-65
2022/01/26 06:13:07;;;;;;;71.22;19.52;;;2.20;99.90;;;;;;5046630;28;20053;-64
2022/01/26 06:15:33;;;;;;;84.82;22.08;;;2.20;99.90;;;;;;5062524;28;20132;-66
2022/01/26 06:17:58;;;;;;;79.47;20.75;;;2.20;99.90;;;;;;5046092;28;20032;-65
2022/01/26 06:20:24;;;;;;;78.50;21.63;;;2.20;99.90;;;;;;5030292;28;20037;-65
2022/01/26 06:22:50;;;;;;;72.53;19.42;;;2.10;99.90;;;;;;5046460;28;20039;-65
2022/01/26 06:25:15;;;;;;;72.00;19.90;;;2.10;99.90;;;;;;5049434;28;20048;-65
2022/01/26 06:27:43;;;;;;;70.63;21.00;;;2.10;99.90;;;;;;5045572;28;20041;-64
2022/01/26 06:30:09;;;;;;;71.75;21.45;;;2.20;99.90;;;;;;5040705;28;20037;-65
2022/01/26 06:32:37;;;;;;;64.78;21.65;;;2.20;99.90;;;;;;5031152;28;20037;-65
2022/01/26 06:35:04;;;;;;;79.10;21.83;;;2.10;99.90;;;;;;5063505;28;20450;-66
2022/01/26 06:37:30;;;;;;;72.25;21.25;;;2.10;99.90;;;;;;5030873;28;20044;-65
2022/01/26 06:39:56;;;;;;;67.28;21.73;;;2.10;99.90;;;;;;5047595;28;20093;-65
2022/01/26 06:42:26;;;;;;;67.25;20.42;;;2.10;99.90;;;;;;5049903;28;20073;-66
2022/01/26 06:45:13;;;;;;;64.18;18.50;;;2.20;99.90;;;;;;5030513;28;20099;-65
2022/01/26 06:50:13;;;;;;;60.60;18.25;;;2.10;99.90;;;;;;5043116;28;20156;-65
2022/01/26 06:52:39;;;;;;;70.63;19.02;;;2.20;99.90;;;;;;5041116;28;20080;-65
2022/01/26 06:55:06;;;;;;;67.13;21.08;;;2.10;99.90;;;;;;5038132;28;20047;-66
2022/01/26 06:57:31;;;;;;;65.07;19.83;;;2.10;99.90;;;;;;5057895;28;20832;-66
2022/01/26 06:59:57;;;;;;;66.07;19.05;;;2.10;99.90;;;;;;5036811;28;20033;-65
2022/01/26 07:02:22;;;;;;;67.45;18.67;;;2.10;99.90;;;;;;5028727;28;20448;-65
2022/01/26 07:04:48;;;;;;;68.47;19.80;;;2.20;99.90;;;;;;5039847;28;20071;-65
2022/01/26 07:07:13;;;;;;;66.47;18.95;;;2.10;99.90;;;;;;5041814;28;20053;-65
2022/01/26 07:09:39;;;;;;;65.50;18.35;;;2.10;99.90;;;;;;5063348;28;20178;-65
2022/01/26 07:12:05;;;;;;;64.75;19.95;;;2.20;99.90;;;;;;5047483;28;20126;-65
2022/01/26 07:20:45;;;;;;;62.05;18.80;;;2.20;99.90;;;;;;5047386;28;20076;-64
2022/01/26 07:22:44;;;;;;;56.90;17.67;;;2.20;99.90;;;;;;5046690;28;20131;-65
2022/01/26 07:25:10;;;;;;;60.03;17.75;;;2.20;99.90;;;;;;5045403;28;20072;-65
2022/01/26 07:27:35;;;;;;;70.32;19.60;;;2.30;99.90;;;;;;5047313;28;20484;-66
2022/01/26 07:30:01;;;;;;;65.95;19.17;;;2.20;99.90;;;;;;5047613;28;20407;-66
2022/01/26 07:32:29;;;;;;;64.78;18.95;;;2.20;99.90;;;;;;5051353;28;20037;-65
2022/01/26 07:34:54;;;;;;;72.90;20.77;;;2.30;99.90;;;;;;5048978;28;20048;-64
2022/01/26 07:37:21;;;;;;;70.60;19.50;;;2.30;99.90;;;;;;5051108;28;20495;-65
2022/01/26 07:40:00;;;;;;;67.15;21.35;;;2.20;99.90;;;;;;5051842;28;20059;-65
2022/01/26 07:42:26;;;;;;;67.40;20.60;;;2.30;99.90;;;;;;5046956;28;20358;-64
2022/01/26 07:44:51;;;;;;;60.42;19.80;;;2.30;99.90;;;;;;5047839;28;20067;-65
2022/01/26 07:47:17;;;;;;;70.32;21.08;;;2.30;99.90;;;;;;5050073;28;20052;-65
2022/01/26 07:49:42;;;;;;;65.63;20.58;;;2.30;99.90;;;;;;5048198;28;20498;-65
2022/01/26 07:52:08;;;;;;;73.03;21.17;;;2.30;99.90;;;;;;5049593;28;20060;-66
2022/01/26 07:54:34;;;;;;;64.57;20.40;;;2.30;99.90;;;;;;5049921;28;20115;-65
2022/01/26 07:57:01;;;;;;;66.00;20.85;;;2.30;99.90;;;;;;5046512;28;20033;-65
2022/01/26 07:59:27;;;;;;;71.70;21.83;;;2.30;99.90;;;;;;5051296;28;20039;-64
2022/01/26 08:01:53;;;;;;;66.53;20.70;;;2.40;99.90;;;;;;5031203;28;20028;-65
2022/01/26 08:04:19;;;;;;;68.18;21.70;;;2.40;99.90;;;;;;5066489;28;20477;-66
2022/01/26 08:06:44;;;;;;;71.80;22.30;;;2.40;99.90;;;;;;5056448;28;20048;-64
2022/01/26 08:09:11;;;;;;;72.88;23.25;;;2.40;99.90;;;;;;5036097;28;20043;-65
2022/01/26 08:11:37;;;;;;;64.13;21.73;;;2.40;99.90;;;;;;5050305;28;20462;-66
2022/01/26 08:14:03;;;;;;;68.20;22.23;;;2.40;99.90;;;;;;5031672;28;20068;-66
2022/01/26 08:16:28;;;;;;;75.43;23.52;;;2.40;99.90;;;;;;5048736;28;20121;-66
2022/01/26 08:18:54;;;;;;;76.22;23.73;;;2.40;99.90;;;;;;5049846;28;20104;-65
2022/01/26 08:21:20;;;;;;;82.07;22.38;;;2.50;99.90;;;;;;5051071;28;20142;-64
2022/01/26 08:23:47;;;;;;;74.93;25.33;;;2.50;99.90;;;;;;5040370;28;20155;-64
2022/01/26 08:26:17;;;;;;;74.93;23.83;;;2.50;99.90;;;;;;5033506;28;20063;-65
2022/01/26 08:28:48;;;;;;;85.75;24.67;;;2.50;99.90;;;;;;5050248;28;20091;-65
2022/01/26 08:31:14;;;;;;;75.78;23.50;;;2.50;99.90;;;;;;5030698;28;20138;-64
2022/01/26 08:33:40;;;;;;;85.80;26.23;;;2.50;99.90;;;;;;5048337;28;20151;-65
2022/01/26 08:36:05;;;;;;;81.70;26.23;;;2.50;99.90;;;;;;5049803;28;20037;-65
2022/01/26 08:38:31;;;;;;;85.72;25.70;;;2.50;99.90;;;;;;5049416;28;20037;-65
2022/01/26 08:40:57;;;;;;;82.97;26.10;;;2.60;99.90;;;;;;5048448;28;20037;-65
2022/01/26 08:43:22;;;;;;;82.30;26.58;;;2.50;99.90;;;;;;5048708;28;20061;-64
2022/01/26 08:45:48;;;;;;;81.85;26.83;;;2.60;99.90;;;;;;5050328;28;20568;-65
2022/01/26 08:48:14;;;;;;;85.53;26.67;;;2.60;99.90;;;;;;5048531;28;20047;-64
2022/01/26 08:50:40;;;;;;;90.35;26.73;;;2.60;99.90;;;;;;5048756;28;20039;-65
2022/01/26 08:53:05;;;;;;;93.20;31.00;;;2.60;99.90;;;;;;5049745;28;20116;-65
2022/01/26 08:55:33;;;;;;;96.55;29.40;;;2.60;99.90;;;;;;5046946;28;20038;-65
2022/01/26 08:57:58;;;;;;;84.32;29.27;;;2.60;99.90;;;;;;5048143;28;20396;-64
2022/01/26 09:00:24;;;;;;;88.82;28.23;;;2.60;99.90;;;;;;5046911;28;20048;-65
2022/01/26 09:02:51;;;;;;;86.53;28.85;;;2.70;99.90;;;;;;5031086;28;20029;-64
2022/01/26 09:05:17;;;;;;;94.65;29.42;;;2.70;99.90;;;;;;5031700;28;20139;-65
2022/01/26 09:07:44;;;;;;;103.68;30.85;;;2.70;99.90;;;;;;5047170;28;20150;-65
2022/01/26 09:10:10;;;;;;;95.68;30.80;;;2.80;99.90;;;;;;5046370;28;20057;-65
2022/01/26 09:12:40;;;;;;;104.93;31.88;;;2.80;99.90;;;;;;5045139;28;20139;-65
2022/01/26 09:15:06;;;;;;;105.57;31.02;;;2.80;99.90;;;;;;5047844;28;20065;-64
2022/01/26 09:17:34;;;;;;;108.93;33.55;;;2.80;99.90;;;;;;5063761;28;20036;-65
2022/01/26 09:20:02;;;;;;;93.13;30.48;;;2.90;99.90;;;;;;5031437;28;20112;-64
2022/01/26 09:22:28;;;;;;;105.07;32.40;;;2.90;99.90;;;;;;5064606;28;20059;-64
2022/01/26 09:24:54;;;;;;;105.93;33.85;;;2.90;99.90;;;;;;5063978;28;20041;-64
2022/01/26 09:27:19;;;;;;;108.97;35.45;;;2.90;99.90;;;;;;5031892;28;20045;-64
2022/01/26 09:29:46;;;;;;;103.22;32.78;;;2.90;99.90;;;;;;5050225;28;20041;-65
2022/01/26 09:32:13;;;;;;;103.70;33.75;;;3.00;99.90;;;;;;5050199;28;20040;-64
2022/01/26 09:34:39;;;;;;;111.30;35.53;;;3.00;99.90;;;;;;5048935;28;20500;-65
2022/01/26 09:37:07;;;;;;;108.57;34.13;;;3.00;99.90;;;;;;5048521;28;20047;-64
2022/01/26 09:39:33;;;;;;;114.75;38.05;;;3.00;99.90;;;;;;5047947;28;20041;-64
2022/01/26 09:41:59;;;;;;;113.18;36.67;;;3.00;99.90;;;;;;5066761;28;20043;-65
2022/01/26 09:44:25;;;;;;;116.60;36.42;;;3.00;99.90;;;;;;5042799;28;20447;-65
2022/01/26 09:46:51;;;;;;;116.28;37.50;;;3.00;99.90;;;;;;5030715;28;20073;-65
2022/01/26 09:49:18;;;;;;;110.75;36.25;;;3.10;99.90;;;;;;5048084;28;20114;-64
2022/01/26 09:51:50;;;;;;;108.32;34.17;;;3.10;99.90;;;;;;5047280;28;20044;-65
2022/01/26 09:54:18;;;;;;;118.90;37.67;;;3.20;99.90;;;;;;5032786;28;20377;-65
2022/01/26 09:56:50;;;;;;;118.70;38.38;;;3.10;99.90;;;;;;5048116;28;20032;-64
2022/01/26 09:59:17;;;;;;;116.68;38.05;;;3.20;99.90;;;;;;5049161;28;20060;-64
2022/01/26 10:01:48;;;;;;;109.80;36.70;;;3.20;99.90;;;;;;5048729;28;20136;-66
2022/01/26 10:04:23;;;;;;;110.65;37.40;;;3.20;99.90;;;;;;5048903;28;20128;-64
2022/01/26 10:07:15;;;;;;;115.82;36.00;;;3.30;99.90;;;;;;5050652;28;20432;-64
2022/01/26 10:15:29;;;;;;;109.10;35.88;;;3.40;99.90;;;;;;5029200;28;20092;-65
2022/01/26 10:18:10;;;;;;;109.82;34.88;;;3.40;99.90;;;;;;5037305;28;20136;-65
2022/01/26 10:20:53;;;;;;;107.97;35.53;;;3.40;99.90;;;;;;5049111;28;20037;-65
2022/01/26 10:23:24;;;;;;;110.90;37.45;;;3.40;99.90;;;;;;5045815;28;20435;-64
2022/01/26 10:26:04;;;;;;;115.70;36.80;;;3.40;99.90;;;;;;5046206;28;20148;-64
2022/01/26 10:28:41;;;;;;;113.57;38.50;;;3.50;99.90;;;;;;5045626;28;20086;-66
2022/01/26 10:31:27;;;;;;;116.78;36.42;;;3.50;99.90;;;;;;5050837;28;20056;-64
2022/01/26 10:34:04;;;;;;;112.25;36.67;;;3.60;99.90;;;;;;5058093;28;20148;-65
2022/01/26 10:36:48;;;;;;;104.63;36.72;;;3.50;99.90;;;;;;5038474;28;20044;-64
2022/01/26 10:39:28;;;;;;;113.95;37.55;;;3.60;99.90;;;;;;5046859;28;20120;-65
2022/01/26 10:41:58;;;;;;;;;;;3.60;99.90;;;;;;5049360;28;20056;-65
2022/01/26 10:44:29;;;;;;;112.18;37.20;;;3.60;99.90;;;;;;5046724;28;19970;-65
2022/01/26 10:47:00;;;;;;;106.35;35.60;;;3.60;99.90;;;;;;5047772;28;20155;-66
2022/01/26 10:52:54;;;;;;;107.75;35.72;;;3.70;99.90;;;;;;5048262;28;20120;-65
2022/01/26 10:55:09;;;;;;;105.35;35.50;;;3.70;99.90;;;;;;5045477;28;20095;-66
2022/01/26 10:57:35;;;;;;;101.18;34.58;;;3.80;99.90;;;;;;5045277;28;20110;-64
2022/01/26 11:00:04;;;;;;;109.70;36.45;;;3.80;99.90;;;;;;5046490;28;20037;-65
2022/01/26 11:02:33;;;;;;;99.75;34.58;;;3.80;99.90;;;;;;5048109;28;20458;-64
2022/01/26 11:04:59;;;;;;;105.72;34.65;;;3.80;99.90;;;;;;5044948;28;20116;-65
2022/01/26 11:07:34;;;;;;;99.57;32.40;;;3.90;99.90;;;;;;5050485;28;20132;-64
2022/01/26 11:10:06;;;;;;;96.53;32.78;;;3.90;99.90;;;;;;5052614;28;20061;-64
2022/01/26 11:12:33;;;;;;;101.25;33.35;;;3.90;99.90;;;;;;5052537;28;20512;-64
2022/01/26 11:15:05;;;;;;;95.10;31.70;;;3.90;99.90;;;;;;5048790;28;20036;-65
2022/01/26 11:17:35;;;;;;;101.13;34.30;;;4.00;99.90;;;;;;5043647;28;20041;-66
2022/01/26 11:20:14;;;;;;;95.38;29.88;;;3.90;99.90;;;;;;5033652;28;20446;-64
2022/01/26 11:22:53;;;;;;;101.60;31.40;;;3.90;99.90;;;;;;5041331;28;20098;-65
2022/01/26 11:25:20;;;;;;;114.15;34.28;;;4.00;99.90;;;;;;5046968;28;20057;-64
2022/01/26 11:27:45;;;;;;;100.00;33.92;;;4.00;99.90;;;;;;5057438;28;20087;-66
2022/01/26 11:30:38;;;;;;;94.05;32.40;;;4.00;99.90;;;;;;5052136;28;20424;-64
2022/01/26 11:33:12;;;;;;;91.57;32.58;;;4.00;99.90;;;;;;5045501;28;20079;-65
2022/01/26 11:35:39;;;;;;;102.72;32.60;;;4.00;99.90;;;;;;5049852;28;20505;-65
2022/01/26 11:46:57;;;;;;;101.53;32.42;;;4.10;99.90;;;;;;5038682;28;20080;-65
2022/01/26 11:49:31;;;;;;;94.45;30.42;;;4.10;99.90;;;;;;5045988;28;20412;-64
2022/01/26 11:51:57;;;;;;;99.85;33.13;;;4.10;99.90;;;;;;5049236;28;20121;-65
2022/01/26 11:54:39;;;;;;;89.38;30.98;;;4.20;99.90;;;;;;5045362;28;20128;-65
2022/01/26 11:57:12;;;;;;;90.88;30.10;;;4.20;99.90;;;;;;5045862;28;20124;-64
2022/01/26 11:59:44;;;;;;;97.18;29.90;;;4.20;99.90;;;;;;5031953;28;20045;-65
2022/01/26 12:02:31;;;;;;;97.43;30.58;;;4.30;99.90;;;;;;5032951;28;20060;-66
2022/01/26 12:05:01;;;;;;;89.75;28.50;;;4.30;99.90;;;;;;5045594;28;20045;-65
2022/01/26 12:07:28;;;;;;;85.15;28.00;;;4.30;99.90;;;;;;5050868;28;20403;-64
2022/01/26 12:09:55;;;;;;;91.70;28.58;;;4.30;99.90;;;;;;5048328;28;20075;-64
2022/01/26 12:12:23;;;;;;;88.28;28.27;;;4.30;99.90;;;;;;5051149;28;20820;-66
2022/01/26 12:15:14;;;;;;;86.13;27.67;;;4.30;99.90;;;;;;5050961;28;20403;-65
2022/01/26 12:17:59;;;;;;;88.35;29.27;;;4.20;99.90;;;;;;5031101;28;20042;-65
2022/01/26 12:37:11;;;;;;;85.55;27.27;;;4.20;99.90;;;;;;5047790;28;20083;-65
2022/01/26 12:45:15;;;;;;;79.38;27.50;;;4.30;99.90;;;;;;5049071;28;20132;-65
2022/01/26 12:47:42;;;;;;;86.57;27.75;;;4.40;99.90;;;;;;5050687;28;20048;-64
2022/01/26 12:50:08;;;;;;;86.95;26.45;;;4.40;99.90;;;;;;5050198;28;20037;-65
2022/01/26 12:52:35;;;;;;;90.07;28.75;;;4.50;99.90;;;;;;5031577;28;20033;-65
2022/01/26 12:55:01;;;;;;;86.50;27.33;;;4.50;99.90;;;;;;5049977;28;20051;-65
2022/01/26 12:57:27;;;;;;;83.10;28.20;;;4.50;99.90;;;;;;5048492;28;20127;-65
2022/01/26 13:00:00;;;;;;;86.93;27.73;;;4.50;99.90;;;;;;5050550;28;20051;-67
2022/01/26 13:02:26;;;;;;;83.28;28.10;;;4.40;99.90;;;;;;5049846;28;20036;-65
2022/01/26 13:05:00;;;;;;;91.30;28.88;;;4.40;99.90;;;;;;5034999;28;20199;-65
2022/01/26 13:07:26;;;;;;;81.57;27.85;;;4.40;99.90;;;;;;5055026;28;20071;-66
2022/01/26 13:09:51;;;;;;;90.60;28.80;;;4.40;99.90;;;;;;5050463;28;20072;-65
2022/01/26 13:12:28;;;;;;;87.10;28.15;;;4.40;99.90;;;;;;5047515;28;20049;-65
2022/01/26 13:15:19;;;;;;;83.60;27.52;;;4.30;99.90;;;;;;5048144;28;20037;-65
2022/01/26 13:17:51;;;;;;;87.63;27.02;;;4.30;99.90;;;;;;5046765;28;20036;-66
2022/01/26 13:26:14;;;;;;;85.03;27.25;;;4.20;99.90;;;;;;5012051;28;20124;-65
2022/01/26 13:28:55;;;;;;;76.57;25.73;;;4.40;99.90;;;;;;5010150;28;20049;-66
2022/01/26 13:34:34;;;;;;;90.70;25.27;;;4.30;99.90;;;;;;5043158;28;20056;-67
2022/01/26 13:37:13;;;;;;;80.15;25.80;;;4.40;99.90;;;;;;5029700;28;20052;-66
2022/01/26 13:39:59;;;;;;;75.45;24.05;;;4.40;99.90;;;;;;5037852;28;20345;-67
2022/01/26 13:50:48;;;;;;;72.32;23.42;;;4.40;99.90;;;;;;5064539;28;20049;-64
2022/01/26 13:53:34;;;;;;;73.72;23.90;;;4.40;99.90;;;;;;5044967;28;20037;-66
2022/01/26 13:56:10;;;;;;;75.07;25.65;;;4.50;99.90;;;;;;5048521;28;20111;-66
2022/01/26 13:58:54;;;;;;;69.53;23.83;;;4.50;99.90;;;;;;5048338;28;20561;-66
2022/01/26 14:01:20;;;;;;;78.18;24.60;;;4.50;99.90;;;;;;5051466;28;20036;-67
2022/01/26 14:03:49;;;;;;;72.38;24.40;;;4.50;99.90;;;;;;5029787;28;20037;-66
2022/01/26 14:06:15;;;;;;;70.70;22.65;;;4.50;99.90;;;;;;5048103;28;20040;-65
2022/01/26 14:08:41;;;;;;;66.45;24.13;;;4.50;99.90;;;;;;5033163;28;20462;-64
2022/01/26 14:11:07;;;;;;;77.85;23.83;;;4.60;99.90;;;;;;5046158;28;20053;-66
2022/01/26 14:13:35;;;;;;;69.70;22.67;;;4.60;99.90;;;;;;5047998;28;20087;-65
2022/01/26 14:16:01;;;;;;;70.65;24.15;;;4.60;99.90;;;;;;5049354;28;20090;-66
2022/01/26 14:21:22;;;;;;;68.65;22.17;;;4.60;99.90;;;;;;5048481;28;20080;-66
2022/01/26 14:24:23;;;;;;;65.30;22.10;;;4.60;99.90;;;;;;5044496;28;20037;-66
2022/01/26 14:26:52;;;;;;;;;;;4.60;99.90;;;;;;5049312;28;20059;-66
2022/01/26 14:29:56;;;;;;;63.38;21.73;;;4.60;99.90;;;;;;5048066;28;20387;-66
2022/01/26 14:39:36;;;;;;;71.13;21.48;;;4.70;99.90;;;;;;5027435;28;20042;-65
2022/01/26 14:40:26;;;;;;;65.50;21.67;;;4.60;99.90;;;;;;5036466;28;20090;-66
2022/01/26 15:10:14;;;;;;;65.03;22.10;;;4.60;99.90;;;;;;5047697;28;20677;-65
2022/01/26 15:19:06;;;;;;;63.63;22.65;;;4.70;99.90;;;;;;5046717;28;20085;-66
2022/01/26 15:29:58;;;;;;;62.88;23.63;;;4.60;99.90;;;;;;5062706;28;20045;-66
2022/01/26 15:42:25;;;;;;;70.97;25.13;;;4.70;99.90;;;;;;5045189;28;20482;-65
2022/01/26 15:50:07;;;;;;;75.32;26.23;;;4.70;99.90;;;;;;5057966;28;20485;-66
2022/01/26 15:57:24;;;;;;;74.43;26.75;;;4.70;99.90;;;;;;5057428;28;20049;-65
2022/01/26 16:06:14;;;;;;;72.40;25.48;;;4.70;99.90;;;;;;5050435;28;20071;-66
2022/01/26 16:17:02;;;;;;;72.68;25.20;;;4.80;99.90;;;;;;5058480;28;20049;-66
2022/01/26 16:20:02;;;;;;;72.07;23.70;;;4.80;99.90;;;;;;5046522;28;20084;-67
2022/01/26 16:35:08;;;;;;;79.50;25.52;;;4.80;99.90;;;;;;5048803;28;20134;-65
2022/01/26 18:31:51;;;;;;;57.60;21.63;;;5.10;99.90;;;;;;5055153;28;20045;-64
2022/01/26 18:46:52;;;;;;;59.65;20.77;;;5.10;99.90;;;;;;5047626;28;20056;-68
2022/01/26 18:49:19;;;;;;;62.35;22.58;;;5.10;99.90;;;;;;5045436;28;20037;-65
2022/01/26 18:51:57;;;;;;;57.47;20.17;;;5.10;99.90;;;;;;5044721;28;20067;-65
2022/01/26 18:54:26;;;;;;;55.10;20.70;;;5.20;99.90;;;;;;5046706;28;20041;-66
2022/01/26 18:56:52;;;;;;;57.85;20.95;;;5.20;99.90;;;;;;5028729;28;20033;-65
2022/01/26 18:59:18;;;;;;;62.67;22.35;;;5.20;99.90;;;;;;5046647;28;20041;-66
2022/01/26 19:01:46;;;;;;;53.92;20.63;;;5.20;99.90;;;;;;5031939;28;20048;-63
2022/01/26 19:04:11;;;;;;;55.63;21.25;;;5.20;99.90;;;;;;5031285;28;20098;-65